createdAt,value
2023-02-21T00:00:05.205Z,127.38
2023-02-21T00:06:16.396Z,112.68
2023-02-21T00:09:22.957Z,110.57
2023-02-21T00:12:23.689Z,111.70
2023-02-21T00:15:31.000Z,109.28
2023-02-21T00:18:31.236Z,115.63
2023-02-21T00:21:38.971Z,112.82
2023-02-21T00:24:39.672Z,111.03
2023-02-21T00:27:46.974Z,111.75
2023-02-21T00:30:47.671Z,112.38
2023-02-21T00:33:54.962Z,109.57
2023-02-21T00:36:55.314Z,106.45
2023-02-21T00:40:02.009Z,110.72
2023-02-21T00:43:08.954Z,108.28
2023-02-21T00:46:10.276Z,114.10
2023-02-21T00:49:17.816Z,112.90
2023-02-21T00:52:19.072Z,109.13
2023-02-21T00:55:26.570Z,121.28
2023-02-21T00:58:27.013Z,119.78
2023-02-21T01:01:33.879Z,126.55
2023-02-21T01:04:50.022Z,129.98
2023-02-21T01:07:56.900Z,130.40
2023-02-21T01:10:57.690Z,124.93
2023-02-21T01:14:05.011Z,129.63
2023-02-21T01:17:12.985Z,122.15
2023-02-21T01:20:19.974Z,124.68
2023-02-21T01:23:20.346Z,124.68
2023-02-21T01:26:26.978Z,125.13
2023-02-21T01:29:27.520Z,126.82
2023-02-21T01:32:33.997Z,129.65
2023-02-21T01:35:34.718Z,134.40
2023-02-21T01:38:42.016Z,135.07
2023-02-21T01:41:42.710Z,134.48
2023-02-21T01:45:03.980Z,139.63
2023-02-21T01:48:04.688Z,125.65
2023-02-21T01:51:12.271Z,114.97
2023-02-21T01:54:13.706Z,117.55
2023-02-21T01:57:22.954Z,105.78
2023-02-21T02:00:26.186Z,98.68
2023-02-21T02:03:42.022Z,91.70
2023-02-21T02:06:49.211Z,81.40
2023-02-21T02:09:50.244Z,74.28
2023-02-21T02:12:45.406Z,76.00
2023-02-21T02:15:59.002Z,65.28
2023-02-21T02:18:59.659Z,63.40
2023-02-21T02:22:06.979Z,66.95
2023-02-21T02:25:04.229Z,66.53
2023-02-21T02:28:01.948Z,64.15
2023-02-21T02:31:24.329Z,63.92
2023-02-21T02:34:35.936Z,61.50
2023-02-21T02:37:35.008Z,63.65
2023-02-21T02:40:40.264Z,65.03
2023-02-21T02:43:29.961Z,67.07
2023-02-21T02:46:18.262Z,68.18
2023-02-21T02:49:27.944Z,65.32
2023-02-21T02:52:15.236Z,65.47
2023-02-21T02:55:10.967Z,64.55
2023-02-21T02:58:00.908Z,61.53
2023-02-21T03:00:56.220Z,62.83
2023-02-21T03:04:22.916Z,59.08
2023-02-21T03:07:58.957Z,59.47
2023-02-21T03:11:04.347Z,58.85
2023-02-21T03:13:51.951Z,58.33
2023-02-21T03:16:52.272Z,57.53
2023-02-21T03:19:55.046Z,56.63
2023-02-21T03:22:45.737Z,56.03
2023-02-21T03:25:30.978Z,54.03
2023-02-21T03:28:14.333Z,53.05
2023-02-21T03:31:07.972Z,51.92
2023-02-21T03:33:57.185Z,47.83
2023-02-21T03:36:40.974Z,48.63
2023-02-21T03:39:24.083Z,47.25
2023-02-21T03:42:13.038Z,46.75
2023-02-21T03:44:55.241Z,45.20
2023-02-21T03:47:43.957Z,41.70
2023-02-21T03:50:33.256Z,41.50
2023-02-21T03:53:15.964Z,39.88
2023-02-21T03:56:05.192Z,39.63
2023-02-21T03:59:04.913Z,37.35
2023-02-21T04:01:53.316Z,38.97
2023-02-21T04:04:44.981Z,38.45
2023-02-21T04:07:30.241Z,35.40
2023-02-21T04:10:21.938Z,36.65
2023-02-21T04:13:05.206Z,35.42
2023-02-21T04:15:57.984Z,33.80
2023-02-21T04:18:43.189Z,34.10
2023-02-21T04:21:31.999Z,37.33
2023-02-21T04:24:17.205Z,35.25
2023-02-21T04:27:07.072Z,34.47
2023-02-21T04:29:54.216Z,33.15
2023-02-21T04:32:42.992Z,34.05
2023-02-21T04:35:32.995Z,34.17
2023-02-21T04:38:31.332Z,34.22
2023-02-21T04:41:14.584Z,34.40
2023-02-21T04:44:03.988Z,33.25
2023-02-21T04:46:52.970Z,32.30
2023-02-21T04:49:41.265Z,35.92
2023-02-21T04:52:23.948Z,34.72
2023-02-21T04:55:06.401Z,33.38
2023-02-21T04:57:54.876Z,35.55
2023-02-21T05:00:43.250Z,33.85
2023-02-21T05:03:37.933Z,32.05
2023-02-21T05:06:31.236Z,33.30
2023-02-21T05:09:12.896Z,32.65
2023-02-21T05:12:01.217Z,33.22
2023-02-21T05:14:43.996Z,32.85
2023-02-21T05:17:32.283Z,32.17
2023-02-21T05:20:18.997Z,32.58
2023-02-21T05:23:13.383Z,34.08
2023-02-21T05:25:56.016Z,33.42
2023-02-21T05:28:46.262Z,33.28
2023-02-21T05:31:28.930Z,34.10
2023-02-21T05:34:20.794Z,33.97
2023-02-21T05:37:03.941Z,34.20
2023-02-21T05:39:52.293Z,33.28
2023-02-21T05:42:34.974Z,34.03
2023-02-21T05:45:23.262Z,32.80
2023-02-21T05:48:08.015Z,31.30
2023-02-21T05:50:56.215Z,31.55
2023-02-21T05:53:37.931Z,32.30
2023-02-21T05:56:22.450Z,30.63
2023-02-21T05:59:10.990Z,32.70
2023-02-21T06:02:00.318Z,31.05
2023-02-21T06:04:41.970Z,30.58
2023-02-21T06:07:30.153Z,31.33
2023-02-21T06:10:13.050Z,29.67
2023-02-21T06:13:01.199Z,29.65
2023-02-21T06:15:43.014Z,30.48
2023-02-21T06:18:31.321Z,31.52
2023-02-21T06:21:14.189Z,31.20
2023-02-21T06:24:03.281Z,31.45
2023-02-21T06:26:46.032Z,29.05
2023-02-21T06:29:34.481Z,30.30
2023-02-21T06:32:16.910Z,30.40
2023-02-21T06:37:48.027Z,29.95
2023-02-21T06:40:37.229Z,31.48
2023-02-21T06:43:19.950Z,32.03
2023-02-21T06:46:08.205Z,32.72
2023-02-21T06:48:50.022Z,32.10
2023-02-21T06:51:49.294Z,33.08
2023-02-21T06:54:30.951Z,33.03
2023-02-21T06:57:19.672Z,33.17
2023-02-21T07:00:02.885Z,32.85
2023-02-21T07:02:58.764Z,32.60
2023-02-21T07:05:54.076Z,31.27
2023-02-21T07:08:43.321Z,33.63
2023-02-21T07:11:26.925Z,31.38
2023-02-21T07:14:16.275Z,32.38
2023-02-21T07:16:58.957Z,31.85
2023-02-21T07:19:47.349Z,31.20
2023-02-21T07:22:33.965Z,33.35
2023-02-21T07:25:25.245Z,34.38
2023-02-21T07:28:07.904Z,35.97
2023-02-21T07:30:56.336Z,38.60
2023-02-21T07:33:38.950Z,37.80
2023-02-21T07:36:27.216Z,35.17
2023-02-21T07:39:09.041Z,35.85
2023-02-21T07:41:57.292Z,37.47
2023-02-21T07:44:39.962Z,34.90
2023-02-21T07:47:28.245Z,39.08
2023-02-21T07:50:11.039Z,37.95
2023-02-21T07:53:00.863Z,40.38
2023-02-21T07:55:44.292Z,38.42
2023-02-21T07:58:33.495Z,38.25
2023-02-21T08:01:16.132Z,39.95
2023-02-21T08:04:10.793Z,38.40
2023-02-21T08:07:00.007Z,43.08
2023-02-21T08:09:43.209Z,39.80
2023-02-21T08:12:31.927Z,42.53
2023-02-21T08:15:14.287Z,43.40
2023-02-21T08:18:02.945Z,41.10
2023-02-21T08:20:45.236Z,42.15
2023-02-21T08:23:33.897Z,39.58
2023-02-21T08:26:17.277Z,42.00
2023-02-21T08:31:49.324Z,38.42
2023-02-21T08:34:38.081Z,39.42
2023-02-21T08:37:21.337Z,38.60
2023-02-21T08:40:10.049Z,39.77
2023-02-21T08:42:56.241Z,36.85
2023-02-21T08:45:45.071Z,37.60
2023-02-21T08:48:27.284Z,38.25
2023-02-21T08:51:16.202Z,38.05
2023-02-21T08:53:58.330Z,34.67
2023-02-21T08:56:46.962Z,35.42
2023-02-21T08:59:31.534Z,36.28
2023-02-21T09:02:26.017Z,37.83
2023-02-21T09:05:34.802Z,38.40
2023-02-21T09:08:23.940Z,37.83
2023-02-21T09:11:06.222Z,36.38
2023-02-21T09:13:55.369Z,36.60
2023-02-21T09:16:37.241Z,39.60
2023-02-21T09:19:25.938Z,36.63
2023-02-21T09:22:08.233Z,37.60
2023-02-21T09:24:56.960Z,38.85
2023-02-21T09:27:39.325Z,35.53
2023-02-21T09:30:32.104Z,34.13
2023-02-21T09:33:14.261Z,33.85
2023-02-21T09:36:03.256Z,31.70
2023-02-21T09:38:46.198Z,30.13
2023-02-21T09:44:26.713Z,28.20
2023-02-21T09:47:17.936Z,29.38
2023-02-21T09:50:07.241Z,28.02
2023-02-21T09:53:06.227Z,29.60
2023-02-21T09:55:56.047Z,27.20
2023-02-21T09:58:44.378Z,27.58
2023-02-21T10:01:49.940Z,27.95
2023-02-21T10:05:11.838Z,27.25
2023-02-21T10:08:16.890Z,27.00
2023-02-21T10:11:06.374Z,26.63
2023-02-21T10:14:22.937Z,26.13
2023-02-21T10:17:21.306Z,27.77
2023-02-21T10:20:24.077Z,28.38
2023-02-21T10:23:09.154Z,27.80
2023-02-21T10:26:04.003Z,28.88
2023-02-21T10:28:46.248Z,27.40
2023-02-21T10:31:37.039Z,27.77
2023-02-21T10:34:32.270Z,28.35
2023-02-21T10:37:48.962Z,31.02
2023-02-21T10:41:00.407Z,29.98
2023-02-21T10:43:56.944Z,29.27
2023-02-21T10:46:51.184Z,28.25
2023-02-21T10:50:15.986Z,29.00
2023-02-21T10:52:59.753Z,29.08
2023-02-21T10:55:48.975Z,30.58
2023-02-21T10:58:35.231Z,29.17
2023-02-21T11:01:32.928Z,30.00
2023-02-21T11:04:45.820Z,29.02
2023-02-21T11:07:34.983Z,30.43
2023-02-21T11:10:41.424Z,28.73
2023-02-21T11:13:30.984Z,29.52
2023-02-21T11:16:19.236Z,28.00
2023-02-21T11:19:15.990Z,28.15
2023-02-21T11:22:06.078Z,27.95
2023-02-21T11:25:08.054Z,26.10
2023-02-21T11:27:50.169Z,25.58
2023-02-21T11:30:43.142Z,28.00
2023-02-21T11:33:30.194Z,27.85
2023-02-21T11:36:24.897Z,27.85
2023-02-21T11:39:18.245Z,27.95
2023-02-21T11:42:11.077Z,26.83
2023-02-21T11:44:55.210Z,24.90
2023-02-21T11:50:50.237Z,23.98
2023-02-21T11:53:50.887Z,20.17
2023-02-21T11:57:08.888Z,21.13
2023-02-21T12:00:09.672Z,20.45
2023-02-21T12:03:18.954Z,19.75
2023-02-21T12:07:07.940Z,21.17
2023-02-21T12:10:05.296Z,19.52
2023-02-21T12:13:02.316Z,19.08
2023-02-21T12:16:03.295Z,19.25
2023-02-21T12:19:01.015Z,19.48
2023-02-21T12:22:11.281Z,19.67
2023-02-21T12:25:11.965Z,18.30
2023-02-21T12:28:18.937Z,19.10
2023-02-21T12:32:15.958Z,17.48
2023-02-21T12:35:23.383Z,16.70
2023-02-21T12:38:18.923Z,17.27
2023-02-21T12:41:38.434Z,16.50
2023-02-21T12:44:23.861Z,16.20
2023-02-21T12:47:32.245Z,16.65
2023-02-21T12:50:21.973Z,16.90
2023-02-21T12:53:20.253Z,17.20
2023-02-21T12:56:25.978Z,16.52
2023-02-21T12:59:46.465Z,14.75
2023-02-21T13:02:49.097Z,14.43
2023-02-21T13:05:50.092Z,14.82
2023-02-21T13:09:08.921Z,15.52
2023-02-21T13:11:59.752Z,14.63
2023-02-21T13:15:17.972Z,14.48
2023-02-21T13:18:14.291Z,14.88
2023-02-21T13:21:20.912Z,15.60
2023-02-21T13:24:39.262Z,16.48
2023-02-21T13:28:06.956Z,16.52
2023-02-21T13:30:57.006Z,16.40
2023-02-21T13:34:07.302Z,18.15
2023-02-21T13:36:53.869Z,17.25
2023-02-21T13:39:44.454Z,18.13
2023-02-21T13:42:28.939Z,18.42
2023-02-21T13:45:31.306Z,18.25
2023-02-21T13:48:16.916Z,17.63
2023-02-21T13:51:08.350Z,19.17
2023-02-21T13:54:18.005Z,18.77
2023-02-21T13:57:06.233Z,18.65
2023-02-21T13:59:49.012Z,18.50
2023-02-21T14:02:38.263Z,19.65
2023-02-21T14:05:21.015Z,19.42
2023-02-21T14:08:16.181Z,21.13
2023-02-21T14:11:10.929Z,19.80
2023-02-21T14:14:07.291Z,19.83
2023-02-21T14:17:00.901Z,20.50
2023-02-21T14:20:00.580Z,22.08
2023-02-21T14:22:44.012Z,20.20
2023-02-21T14:25:34.426Z,20.08
2023-02-21T14:28:52.867Z,20.00
2023-02-21T14:32:06.166Z,21.63
2023-02-21T14:34:57.986Z,22.08
2023-02-21T14:38:12.117Z,21.83
2023-02-21T14:41:23.971Z,22.42
2023-02-21T14:44:21.903Z,23.80
2023-02-21T14:47:21.029Z,23.77
2023-02-21T14:50:21.351Z,24.20
2023-02-21T14:53:46.036Z,24.67
2023-02-21T14:56:43.271Z,24.60
2023-02-21T14:59:47.984Z,23.15
2023-02-21T15:03:11.374Z,24.17
2023-02-21T15:06:21.926Z,26.45
2023-02-21T15:09:21.288Z,25.88
2023-02-21T15:12:03.941Z,26.20
2023-02-21T15:15:01.356Z,24.52
2023-02-21T15:17:42.967Z,25.27
2023-02-21T15:20:32.353Z,23.60
2023-02-21T15:23:26.940Z,25.20
2023-02-21T15:26:31.154Z,27.52
2023-02-21T15:29:14.864Z,26.00
2023-02-21T15:32:05.323Z,23.23
2023-02-21T15:34:48.905Z,24.40
2023-02-21T15:37:34.193Z,27.08
2023-02-21T15:40:31.940Z,28.38
2023-02-21T15:43:37.234Z,29.00
2023-02-21T15:46:26.053Z,28.35
2023-02-21T15:49:15.278Z,29.75
2023-02-21T15:51:57.962Z,27.55
2023-02-21T15:54:41.014Z,28.30
2023-02-21T15:57:38.861Z,29.55
2023-02-21T16:00:28.501Z,23.10
2023-02-21T16:03:50.904Z,26.92
2023-02-21T16:06:39.982Z,27.70
2023-02-21T16:09:44.869Z,28.67
2023-02-21T16:12:30.264Z,28.25
2023-02-21T16:15:29.937Z,25.48
2023-02-21T16:18:19.133Z,27.00
2023-02-21T16:21:17.157Z,27.95
2023-02-21T16:24:21.218Z,32.03
2023-02-21T16:27:22.903Z,33.85
2023-02-21T16:30:07.103Z,33.63
2023-02-21T16:32:58.858Z,35.88
2023-02-21T16:35:41.918Z,37.92
2023-02-21T16:38:33.972Z,36.03
2023-02-21T16:41:24.379Z,34.53
2023-02-21T16:44:06.900Z,32.88
2023-02-21T16:46:58.337Z,34.20
2023-02-21T16:49:40.982Z,37.92
2023-02-21T16:52:29.413Z,38.15
2023-02-21T16:55:11.924Z,39.75
2023-02-21T16:58:05.196Z,39.25
2023-02-21T17:00:48.099Z,39.00
2023-02-21T17:03:37.398Z,39.75
2023-02-21T17:06:27.059Z,41.20
2023-02-21T17:09:16.440Z,43.03
2023-02-21T17:11:58.926Z,43.08
2023-02-21T17:14:41.927Z,46.25
2023-02-21T17:17:31.980Z,43.25
2023-02-21T17:20:25.279Z,44.28
2023-02-21T17:23:07.951Z,42.83
2023-02-21T17:25:57.220Z,45.63
2023-02-21T17:28:39.970Z,42.65
2023-02-21T17:31:35.936Z,45.08
2023-02-21T17:34:31.023Z,43.00
2023-02-21T17:37:20.216Z,43.40
2023-02-21T17:40:03.955Z,43.90
2023-02-21T17:42:54.279Z,42.67
2023-02-21T17:45:36.928Z,43.13
2023-02-21T17:48:26.373Z,45.17
2023-02-21T17:51:09.954Z,44.30
2023-02-21T17:53:59.325Z,44.40
2023-02-21T17:56:41.916Z,44.15
2023-02-21T17:59:24.400Z,45.27
2023-02-21T18:02:13.313Z,43.25
2023-02-21T18:05:02.437Z,42.65
2023-02-21T18:07:44.861Z,41.65
2023-02-21T18:10:35.338Z,48.45
2023-02-21T18:13:16.960Z,45.15
2023-02-21T18:16:00.590Z,51.10
2023-02-21T18:18:50.983Z,51.45
2023-02-21T18:21:42.499Z,59.70
2023-02-21T18:24:26.941Z,61.17
2023-02-21T18:27:18.587Z,58.70
2023-02-21T18:30:04.061Z,49.88
2023-02-21T18:32:54.254Z,60.13
2023-02-21T18:35:37.008Z,63.85
2023-02-21T18:38:26.596Z,66.93
2023-02-21T18:41:09.845Z,63.13
2023-02-21T18:43:59.324Z,64.55
2023-02-21T18:46:42.023Z,63.75
2023-02-21T18:49:38.825Z,67.22
2023-02-21T18:52:21.912Z,62.83
2023-02-21T18:55:10.345Z,63.28
2023-02-21T18:57:52.891Z,60.75
2023-02-21T19:00:42.286Z,60.33
2023-02-21T19:03:24.988Z,61.05
2023-02-21T19:06:16.288Z,60.65
2023-02-21T19:09:00.335Z,57.95
2023-02-21T19:11:49.421Z,61.78
2023-02-21T19:14:31.884Z,59.88
2023-02-21T19:17:20.950Z,59.07
2023-02-21T19:20:03.450Z,58.28
2023-02-21T19:22:51.929Z,58.67
2023-02-21T19:25:34.307Z,59.67
2023-02-21T19:28:22.866Z,56.70
2023-02-21T19:31:05.458Z,58.20
2023-02-21T19:33:53.901Z,58.10
2023-02-21T19:36:38.565Z,58.03
2023-02-21T19:39:27.956Z,57.85
2023-02-21T19:42:12.037Z,61.00
2023-02-21T19:45:00.913Z,59.65
2023-02-21T19:47:43.288Z,58.85
2023-02-21T19:50:31.867Z,59.22
2023-02-21T19:53:14.224Z,57.53
2023-02-21T19:56:02.831Z,59.25
2023-02-21T19:58:46.390Z,55.35
2023-02-21T20:01:36.966Z,60.78
2023-02-21T20:04:19.417Z,57.15
2023-02-21T20:07:08.303Z,61.42
2023-02-21T20:09:51.277Z,57.70
2023-02-21T20:12:39.855Z,59.10
2023-02-21T20:15:22.177Z,58.00
2023-02-21T20:18:11.892Z,56.38
2023-02-21T20:20:54.253Z,57.97
2023-02-21T20:23:42.875Z,56.92
2023-02-21T20:26:26.115Z,56.75
2023-02-21T20:29:14.927Z,58.10
2023-02-21T20:32:11.917Z,55.80
2023-02-21T20:35:02.992Z,57.13
2023-02-21T20:37:45.479Z,57.35
2023-02-21T20:40:34.887Z,56.58
2023-02-21T20:43:17.239Z,57.38
2023-02-21T20:46:05.969Z,56.40
2023-02-21T20:48:48.122Z,56.25
2023-02-21T20:51:38.990Z,53.25
2023-02-21T20:54:24.196Z,51.85
2023-02-21T20:57:12.936Z,56.15
2023-02-21T20:59:55.112Z,57.58
2023-02-21T21:02:43.843Z,54.58
2023-02-21T21:05:27.321Z,53.30
2023-02-21T21:08:17.001Z,54.22
2023-02-21T21:10:59.364Z,53.90
2023-02-21T21:13:48.290Z,54.42
2023-02-21T21:16:30.210Z,50.72
2023-02-21T21:19:19.791Z,52.58
2023-02-21T21:22:03.245Z,50.90
2023-02-21T21:24:51.877Z,51.42
2023-02-21T21:27:34.105Z,54.20
2023-02-21T21:30:29.971Z,51.65
2023-02-21T21:33:26.719Z,53.47
2023-02-21T21:36:18.946Z,51.25
2023-02-21T21:39:01.249Z,53.63
2023-02-21T21:41:53.869Z,51.20
2023-02-21T21:44:42.858Z,51.35
2023-02-21T21:47:39.867Z,52.15
2023-02-21T21:50:23.175Z,48.78
2023-02-21T21:53:13.033Z,52.00
2023-02-21T21:55:55.209Z,50.25
2023-02-21T21:58:43.820Z,52.25
2023-02-21T22:01:33.920Z,52.15
2023-02-21T22:04:16.126Z,50.97
2023-02-21T22:07:04.883Z,50.95
2023-02-21T22:09:53.169Z,52.38
2023-02-21T22:12:36.903Z,52.25
2023-02-21T22:15:22.684Z,50.35
2023-02-21T22:18:11.855Z,53.17
2023-02-21T22:20:54.180Z,52.42
2023-02-21T22:23:42.910Z,49.38
2023-02-21T22:26:34.075Z,50.35
2023-02-21T22:29:15.877Z,52.67
2023-02-21T22:32:05.802Z,52.05
2023-02-21T22:35:00.887Z,50.80
2023-02-21T22:37:51.924Z,52.70
2023-02-21T22:40:48.311Z,52.00
2023-02-21T22:43:36.193Z,50.60
2023-02-21T22:46:18.865Z,51.17
2023-02-21T22:49:00.966Z,51.70
2023-02-21T22:51:49.891Z,50.83
2023-02-21T22:54:38.119Z,50.80
2023-02-21T22:57:22.803Z,51.00
2023-02-21T23:00:20.317Z,49.30
2023-02-21T23:03:02.841Z,49.13
2023-02-21T23:05:48.740Z,51.97
2023-02-21T23:08:37.938Z,49.92
2023-02-21T23:11:32.344Z,49.00
2023-02-21T23:14:16.156Z,49.17
2023-02-21T23:16:59.714Z,48.90
2023-02-21T23:19:48.882Z,49.17
2023-02-21T23:22:31.003Z,48.10
2023-02-21T23:25:28.225Z,47.92
2023-02-21T23:28:25.793Z,48.83
2023-02-21T23:31:08.184Z,47.00
2023-02-21T23:33:56.820Z,47.22
2023-02-21T23:36:42.808Z,49.17
2023-02-21T23:39:32.828Z,47.67
2023-02-21T23:42:21.097Z,48.97
2023-02-21T23:45:04.975Z,45.22
2023-02-21T23:47:57.243Z,50.50
2023-02-21T23:50:38.779Z,45.08
2023-02-21T23:53:30.916Z,48.80
2023-02-21T23:56:14.070Z,49.60
2023-02-21T23:59:02.946Z,49.78
